Rockport, ME (04856)

10:28 PM EDT on July 26, 2016 (GMT -0400)
Wayfarer Marine | | Change Station

Elev 15 ft 44.21 °N, 69.06 °W | Updated 11 minutes ago

Clear
Clear
77.0 °F
Feels Like 79 °F
N
5.0
Wind Variable Wind from WNW
Gusts 9.0 mph

Today
High -- | Low -- °F
--% Chance of Precip.
Yesterday
High -- | Low -- °F
Precip. -- in
Pressure 29.83 in
Visibility 10.0 miles
Clouds Clear
Heat Index 79 °F
Dew Point 64 °F
Humidity 65%
Rainfall 0.07 in
Snow Depth Not available.
5:18 AM 8:07 PM
Waning Gibbous, 48% visible
METAR KRKD 270156Z AUTO 29003KT 10SM CLR 24/18 A2982 RMK AO2 SLP099 T02390178
Pressure 29.83 in
Visibility 10.0 miles
Clouds Clear
Heat Index 79 °F
Dew Point 64 °F
Humidity 65%
Rainfall 0.07 in
Snow Depth Not available.
5:18 AM 8:07 PM
Waning Gibbous, 48% visible
METAR KRKD 270156Z AUTO 29003KT 10SM CLR 24/18 A2982 RMK AO2 SLP099 T02390178

10-Day Weather Forecast

Almanac

Astronomy

Jul. 26, 2016 Rise Set
Actual Time
Civil Twilight
Nautical Twilight
Astronomical Twilight
Moon
Length of Visible Light
Length of Day
Tomorrow will be .
, % of the Moon is Illuminated

Today's Extremes

State Highs State Lows

Community

WunderPhotos

Upload Photos

1,927,777 photos uploaded!

WunderBlog® & News

Nearby

Air Quality

  Air Quality AQ Index Pollutant
Not available.

Snow Depth

Station Depth Elevation

Earthquake Activity

City Distance Mag. Time & Date
Minimum magnitude displayed is 2.5.

Coastal Water Temperatures

Place Temperature

Stations

Nearby Weather Stations

Station Location Temp. Windchill Dew Point Humidity Wind Precip. Elev Updated Type
                   

Watches & Warnings

There are currently no watches in effect.